createdAt,value
2016-10-20T14:03:07.509Z,100627
2016-10-20T14:03:23.892Z,100633
2016-10-20T14:09:17.677Z,100627
2016-10-20T14:15:51.157Z,100639
2016-10-20T15:53:07.003Z,100659
2016-10-20T15:57:17.635Z,100665
2016-10-20T15:58:21.179Z,100668
2016-10-20T15:59:24.737Z,100659
2016-10-20T16:00:28.282Z,100665
2016-10-20T16:01:31.835Z,100654
2016-10-20T16:02:35.386Z,100665
2016-10-20T16:03:38.932Z,100656
2016-10-20T16:04:42.473Z,100659
2016-10-20T16:05:46.017Z,100662
2016-10-20T16:06:49.563Z,100659
2016-10-20T16:07:53.106Z,100668
2016-10-20T16:08:56.653Z,100668
2016-10-20T16:10:00.205Z,100674
2016-10-20T16:11:03.755Z,100671
2016-10-20T16:12:07.298Z,100679
2016-10-20T16:13:10.847Z,100659
2016-10-20T16:14:14.394Z,100668
2016-10-20T16:15:17.936Z,100673
2016-10-20T16:16:21.476Z,100662
2016-10-20T16:17:25.025Z,100665
2016-10-20T16:18:28.575Z,100665
2016-10-20T16:19:32.128Z,100659
2016-10-20T16:20:35.676Z,100659
2016-10-20T16:21:39.220Z,100662
2016-10-20T16:22:42.770Z,100670
2016-10-20T16:23:46.323Z,100664
2016-10-20T16:24:49.863Z,100664
2016-10-20T16:25:53.419Z,100664
2016-10-20T16:26:56.960Z,100664
2016-10-20T16:28:00.513Z,100665
2016-10-20T16:29:04.067Z,100665
2016-10-20T16:30:07.609Z,100662
2016-10-20T16:31:11.159Z,100662
2016-10-20T16:32:14.697Z,100659
2016-10-20T16:33:18.246Z,100670
2016-10-20T16:34:21.794Z,100662
2016-10-20T16:35:25.340Z,100659
2016-10-20T16:36:28.879Z,100664
2016-10-20T16:37:32.434Z,100664
2016-10-20T16:38:35.986Z,100667
2016-10-20T16:39:39.538Z,100673
2016-10-20T16:40:43.074Z,100659
2016-10-20T16:41:46.816Z,100664
2016-10-20T16:42:50.364Z,100673
2016-10-20T16:43:53.916Z,100667
2016-10-20T16:44:57.467Z,100670
2016-10-20T16:46:01.014Z,100664
2016-10-20T16:47:04.760Z,100673
2016-10-20T16:48:08.362Z,100673
2016-10-20T16:49:11.910Z,100667
2016-10-20T16:50:15.319Z,100670
2016-10-20T16:51:18.857Z,100670
2016-10-20T16:52:22.408Z,100673
2016-10-20T16:53:25.956Z,100668
2016-10-20T16:54:29.498Z,100679
2016-10-20T16:55:33.055Z,100668
2016-10-20T16:56:36.607Z,100665
2016-10-20T16:57:40.150Z,100676
2016-10-20T16:58:43.700Z,100673
2016-10-20T16:59:47.254Z,100665
2016-10-20T17:00:50.888Z,100662
2016-10-20T17:01:54.434Z,100667
2016-10-20T17:02:57.981Z,100667
2016-10-20T17:04:01.539Z,100670
2016-10-20T17:05:05.084Z,100667
2016-10-20T17:06:08.628Z,100667
2016-10-20T17:07:12.178Z,100664
2016-10-20T17:08:15.727Z,100662
2016-10-20T17:09:19.267Z,100662
2016-10-20T17:10:22.811Z,100664
2016-10-20T17:11:26.358Z,100662
2016-10-20T17:12:29.914Z,100659
2016-10-20T17:13:33.461Z,100664
2016-10-20T17:14:37.011Z,100667
2016-10-20T17:15:40.559Z,100667
2016-10-20T17:16:44.112Z,100664
2016-10-20T17:17:47.655Z,100659
2016-10-20T17:18:51.204Z,100667
2016-10-20T17:19:54.752Z,100664
2016-10-20T17:20:58.307Z,100667
2016-10-20T17:22:01.850Z,100665
2016-10-20T17:23:05.402Z,100662
2016-10-20T17:24:08.955Z,100665
2016-10-20T17:25:12.500Z,100659
2016-10-20T17:26:16.045Z,100665
2016-10-20T17:27:19.689Z,100659
2016-10-20T22:27:52.300Z,100625
2016-10-20T22:28:55.847Z,100634
2016-10-20T22:29:59.390Z,100634
2016-10-20T22:31:02.942Z,100625
2016-10-20T22:32:06.484Z,100625
2016-10-20T22:33:10.039Z,100631
2016-10-20T22:34:13.584Z,100628
2016-10-20T22:35:17.133Z,100616
2016-10-20T22:36:20.811Z,100616
2016-10-20T22:37:24.315Z,100616
2016-10-20T22:38:27.864Z,100619
2016-10-20T22:39:31.412Z,100613
2016-10-20T22:40:34.958Z,100598
2016-10-20T22:41:38.508Z,100610
2016-10-20T22:42:42.059Z,100604
2016-10-20T22:43:45.608Z,100604
2016-10-20T22:44:49.160Z,100598
2016-10-20T22:45:52.705Z,100601
2016-10-20T22:46:56.245Z,100604
2016-10-20T22:47:59.797Z,100598
2016-10-20T22:49:03.350Z,100601
2016-10-20T22:50:06.906Z,100598
2016-10-20T22:51:10.441Z,100598
2016-10-20T22:52:13.982Z,100598
2016-10-20T22:53:17.535Z,100601
2016-10-20T22:54:21.092Z,100598
2016-10-20T22:55:24.625Z,100598
2016-10-20T22:56:28.170Z,100598
2016-10-20T22:57:31.722Z,100598
2016-10-20T22:58:35.276Z,100596
2016-10-20T22:59:38.820Z,100596
2016-10-20T23:00:42.409Z,100593
2016-10-20T23:01:45.956Z,100596
2016-10-20T23:02:49.500Z,100590
2016-10-20T23:03:53.051Z,100590
2016-10-20T23:04:56.594Z,100596
2016-10-20T23:06:00.142Z,100596
2016-10-20T23:07:03.683Z,100587
2016-10-20T23:08:07.244Z,100596
2016-10-20T23:09:10.792Z,100587
2016-10-20T23:10:14.339Z,100576
2016-10-20T23:11:17.996Z,100579
2016-10-20T23:12:21.502Z,100590
2016-10-20T23:13:25.049Z,100579
2016-10-20T23:14:28.598Z,100587
2016-10-20T23:15:32.147Z,100582
2016-10-20T23:16:35.690Z,100582
2016-10-20T23:17:39.237Z,100576
2016-10-20T23:18:42.800Z,100579
2016-10-20T23:19:46.332Z,100587
2016-10-20T23:20:49.882Z,100582
2016-10-20T23:21:53.421Z,100587
2016-10-20T23:22:57.008Z,100587
2016-10-20T23:24:00.555Z,100587
2016-10-20T23:25:04.098Z,100582
2016-10-20T23:26:07.656Z,100576
2016-10-20T23:27:11.209Z,100576
2016-10-20T23:28:14.844Z,100576
2016-10-20T23:29:18.391Z,100576
2016-10-20T23:30:21.946Z,100576
2016-10-20T23:31:25.486Z,100576
2016-10-20T23:32:29.039Z,100570
2016-10-20T23:33:32.582Z,100579
2016-10-20T23:34:36.141Z,100573
2016-10-20T23:35:39.680Z,100564
2016-10-20T23:36:43.224Z,100561
2016-10-20T23:37:46.777Z,100573
2016-10-20T23:38:50.327Z,100561
2016-10-20T23:39:53.866Z,100564
2016-10-20T23:40:57.419Z,100558
2016-10-20T23:42:00.967Z,100567
2016-10-20T23:43:04.526Z,100561
2016-10-20T23:44:08.085Z,100558
2016-10-20T23:45:11.497Z,100558
2016-10-20T23:46:15.050Z,100567
2016-10-20T23:47:18.599Z,100555
2016-10-20T23:48:22.145Z,100555
2016-10-20T23:49:25.694Z,100553
2016-10-20T23:50:29.238Z,100547
2016-10-20T23:51:32.786Z,100564
2016-10-20T23:52:36.331Z,100561
2016-10-20T23:53:39.879Z,100555
2016-10-20T23:54:43.429Z,100558
2016-10-20T23:55:46.987Z,100558
2016-10-20T23:56:50.526Z,100561
2016-10-20T23:57:54.079Z,100555
2016-10-20T23:58:57.623Z,100570
